createdAt,value
2018-06-15T00:00:07.556Z,17.72
2018-06-15T00:02:36.175Z,17.60
2018-06-15T00:05:04.543Z,17.41
2018-06-15T00:07:32.624Z,17.24
2018-06-15T00:10:01.308Z,17.14
2018-06-15T00:12:29.360Z,17.04
2018-06-15T00:15:04.012Z,17.04
2018-06-15T00:17:32.067Z,17.14
2018-06-15T00:20:00.128Z,17.01
2018-06-15T00:22:28.203Z,16.92
2018-06-15T00:24:56.245Z,17.00
2018-06-15T00:27:30.946Z,17.00
2018-06-15T00:29:58.999Z,16.89
2018-06-15T00:32:27.132Z,16.87
2018-06-15T00:34:55.179Z,16.87
2018-06-15T00:37:23.229Z,16.93
2018-06-15T00:39:51.304Z,16.91
2018-06-15T00:42:19.376Z,16.91
2018-06-15T00:44:47.423Z,16.97
2018-06-15T00:47:15.480Z,16.99
2018-06-15T00:49:43.543Z,17.10
2018-06-15T00:52:11.608Z,17.04
2018-06-15T00:54:39.678Z,17.12
2018-06-15T00:57:19.124Z,17.05
2018-06-15T00:59:47.241Z,17.14
2018-06-15T01:02:15.335Z,16.98
2018-06-15T01:04:43.482Z,16.91
2018-06-15T01:07:11.474Z,16.94
2018-06-15T01:09:39.574Z,16.91
2018-06-15T01:12:07.635Z,16.87
2018-06-15T01:14:35.690Z,16.97
2018-06-15T01:17:03.763Z,16.91
2018-06-15T01:19:31.812Z,16.92
2018-06-15T01:21:59.852Z,16.99
2018-06-15T01:24:27.924Z,17.15
2018-06-15T01:26:55.952Z,17.26
2018-06-15T01:29:24.015Z,17.43
2018-06-15T01:31:52.082Z,17.51
2018-06-15T01:34:20.151Z,17.58
2018-06-15T01:36:48.290Z,17.64
2018-06-15T01:39:16.346Z,17.73
2018-06-15T01:41:44.384Z,17.80
2018-06-15T01:44:12.472Z,17.69
2018-06-15T01:46:40.505Z,17.64
2018-06-15T01:49:08.551Z,17.39
2018-06-15T01:51:36.659Z,17.12
2018-06-15T01:54:04.724Z,17.03
2018-06-15T01:56:32.863Z,17.02
2018-06-15T01:59:00.920Z,17.02
2018-06-15T02:01:29.022Z,17.15
2018-06-15T02:03:57.023Z,17.12
2018-06-15T02:06:25.091Z,17.29
2018-06-15T02:08:53.153Z,17.28
2018-06-15T02:11:21.207Z,17.14
2018-06-15T02:13:49.287Z,16.97
2018-06-15T02:16:17.459Z,16.87
2018-06-15T02:18:45.659Z,16.99
2018-06-15T02:21:13.727Z,16.77
2018-06-15T02:23:41.812Z,16.65
2018-06-15T02:26:09.879Z,16.60
2018-06-15T02:28:37.977Z,16.59
2018-06-15T02:31:06.096Z,16.83
2018-06-15T02:33:34.187Z,16.99
2018-06-15T02:36:02.275Z,17.01
2018-06-15T02:38:30.439Z,16.86
2018-06-15T02:40:58.525Z,16.92
2018-06-15T02:43:26.597Z,16.82
2018-06-15T02:45:54.835Z,16.94
2018-06-15T02:48:22.916Z,16.84
2018-06-15T02:50:50.988Z,16.74
2018-06-15T02:53:19.095Z,16.71
2018-06-15T02:55:47.264Z,16.74
2018-06-15T02:58:15.355Z,16.64
2018-06-15T03:00:43.451Z,16.65
2018-06-15T03:03:11.566Z,16.74
2018-06-15T03:05:39.701Z,16.81
2018-06-15T03:08:07.770Z,16.69
2018-06-15T03:10:35.857Z,16.48
2018-06-15T03:13:03.928Z,16.39
2018-06-15T03:15:32.036Z,16.36
2018-06-15T03:18:00.144Z,16.38
2018-06-15T03:20:28.339Z,16.41
2018-06-15T03:22:56.422Z,16.37
2018-06-15T03:25:24.503Z,16.39
2018-06-15T03:27:52.583Z,16.42
2018-06-15T03:30:20.650Z,16.41
2018-06-15T03:32:48.715Z,16.38
2018-06-15T03:35:16.836Z,16.37
2018-06-15T03:37:44.952Z,16.36
2018-06-15T03:40:13.042Z,16.32
2018-06-15T03:42:41.143Z,16.32
2018-06-15T03:45:09.214Z,16.37
2018-06-15T03:47:37.278Z,16.40
2018-06-15T03:50:05.392Z,16.43
2018-06-15T03:52:33.467Z,16.40
2018-06-15T03:55:01.711Z,16.39
2018-06-15T03:57:29.781Z,16.39
2018-06-15T03:59:57.891Z,16.41
2018-06-15T04:02:25.998Z,16.40
2018-06-15T04:04:54.095Z,16.42
2018-06-15T04:07:22.184Z,16.46
2018-06-15T04:09:50.382Z,16.56
2018-06-15T04:12:18.464Z,16.61
2018-06-15T04:14:46.549Z,16.69
2018-06-15T04:17:14.632Z,16.79
2018-06-15T04:19:42.795Z,16.96
2018-06-15T04:22:10.931Z,17.05
2018-06-15T04:24:39.020Z,17.07
2018-06-15T04:27:07.099Z,17.12
2018-06-15T04:29:35.191Z,17.00
2018-06-15T04:32:03.439Z,16.96
2018-06-15T04:34:31.539Z,16.99
2018-06-15T04:36:59.620Z,16.99
2018-06-15T04:39:27.718Z,17.02
2018-06-15T04:41:55.795Z,16.98
2018-06-15T04:44:23.921Z,17.03
2018-06-15T04:46:52.030Z,17.20
2018-06-15T04:49:20.108Z,17.23
2018-06-15T04:51:48.220Z,17.14
2018-06-15T04:54:16.299Z,17.14
2018-06-15T04:56:44.415Z,17.14
2018-06-15T04:59:12.517Z,17.17
2018-06-15T05:01:40.591Z,17.35
2018-06-15T05:04:08.668Z,17.39
2018-06-15T05:06:36.765Z,17.43
2018-06-15T05:09:07.508Z,17.55
2018-06-15T05:11:35.589Z,17.64
2018-06-15T05:14:03.738Z,17.87
2018-06-15T05:16:31.913Z,18.00
2018-06-15T05:18:59.977Z,18.15
2018-06-15T05:21:28.103Z,18.36
2018-06-15T05:23:56.187Z,18.32
2018-06-15T05:26:24.337Z,18.13
2018-06-15T05:28:52.432Z,17.91
2018-06-15T05:31:20.518Z,17.91
2018-06-15T05:33:48.659Z,18.07
2018-06-15T05:36:16.772Z,18.30
2018-06-15T05:38:44.861Z,18.36
2018-06-15T05:41:19.596Z,18.66
2018-06-15T05:43:47.740Z,18.54
2018-06-15T05:46:15.847Z,18.32
2018-06-15T05:48:50.359Z,18.49
2018-06-15T05:51:18.475Z,18.38
2018-06-15T05:53:46.607Z,18.09
2018-06-15T05:56:14.688Z,17.98
2018-06-15T05:58:42.786Z,17.96
2018-06-15T06:01:11.137Z,18.03
2018-06-15T06:03:39.215Z,18.08
2018-06-15T06:06:07.312Z,18.07
2018-06-15T06:08:35.395Z,18.16
2018-06-15T06:11:03.517Z,18.22
2018-06-15T06:13:31.604Z,18.26
2018-06-15T06:15:59.684Z,18.50
2018-06-15T06:18:27.799Z,18.47
2018-06-15T06:20:55.902Z,18.50
2018-06-15T06:23:24.068Z,18.57
2018-06-15T06:25:52.164Z,18.59
2018-06-15T06:28:20.236Z,18.84
2018-06-15T06:30:48.380Z,19.11
2018-06-15T06:33:16.452Z,18.84
2018-06-15T06:35:44.557Z,19.14
2018-06-15T06:38:12.820Z,19.43
2018-06-15T06:40:40.927Z,19.28
2018-06-15T06:43:08.999Z,19.25
2018-06-15T06:45:37.106Z,18.93
2018-06-15T06:48:05.247Z,18.88
2018-06-15T06:50:33.404Z,19.16
2018-06-15T06:53:01.516Z,19.59
2018-06-15T06:55:29.636Z,19.47
2018-06-15T06:57:57.727Z,19.23
2018-06-15T07:00:25.874Z,19.19
2018-06-15T07:02:53.965Z,19.14
2018-06-15T07:05:22.078Z,19.09
2018-06-15T07:07:50.213Z,19.08
2018-06-15T07:10:18.286Z,19.33
2018-06-15T07:12:46.426Z,19.27
2018-06-15T07:15:14.505Z,19.41
2018-06-15T07:17:42.600Z,19.73
2018-06-15T07:20:10.676Z,19.51
2018-06-15T07:22:38.796Z,19.84
2018-06-15T07:25:06.881Z,20.02
2018-06-15T07:27:34.983Z,20.21
2018-06-15T07:30:03.172Z,20.15
2018-06-15T07:32:31.274Z,20.11
2018-06-15T07:34:59.388Z,19.84
2018-06-15T07:37:27.550Z,19.57
2018-06-15T07:39:55.611Z,19.42
2018-06-15T07:42:23.687Z,19.55
2018-06-15T07:44:51.759Z,19.49
2018-06-15T07:47:19.831Z,19.61
2018-06-15T07:49:47.936Z,19.38
2018-06-15T07:52:16.091Z,19.75
2018-06-15T07:54:44.166Z,20.13
2018-06-15T07:57:12.259Z,19.80
2018-06-15T07:59:40.415Z,19.86
2018-06-15T08:02:08.484Z,20.37
2018-06-15T08:04:36.589Z,20.81
2018-06-15T08:07:04.674Z,20.54
2018-06-15T08:09:32.776Z,20.50
2018-06-15T08:12:00.867Z,20.65
2018-06-15T08:14:28.951Z,20.64
2018-06-15T08:16:57.161Z,20.62
2018-06-15T08:19:25.261Z,20.62
2018-06-15T08:21:53.334Z,21.04
2018-06-15T08:24:21.528Z,20.96
2018-06-15T08:26:49.635Z,21.49
2018-06-15T08:29:17.710Z,21.07
2018-06-15T08:31:45.778Z,20.86
2018-06-15T08:34:13.864Z,20.77
2018-06-15T08:36:41.943Z,20.87
2018-06-15T08:39:11.518Z,21.20
2018-06-15T08:41:39.600Z,21.22
2018-06-15T08:44:07.680Z,20.92
2018-06-15T08:46:35.830Z,21.22
2018-06-15T08:49:03.911Z,21.16
2018-06-15T08:51:31.996Z,21.76
2018-06-15T08:54:00.073Z,22.20
2018-06-15T08:56:28.198Z,22.49
2018-06-15T08:58:56.292Z,22.50
2018-06-15T09:01:24.369Z,22.54
2018-06-15T09:03:52.447Z,22.38
2018-06-15T09:06:20.560Z,22.30
2018-06-15T09:08:48.647Z,21.90
2018-06-15T09:11:16.707Z,22.16
2018-06-15T09:13:44.808Z,22.24
2018-06-15T09:16:12.975Z,22.43
2018-06-15T09:18:41.255Z,21.79
2018-06-15T09:21:09.371Z,22.23
2018-06-15T09:23:37.449Z,22.56
2018-06-15T09:26:05.600Z,23.20
2018-06-15T09:28:33.719Z,23.15
2018-06-15T09:31:01.795Z,22.83
2018-06-15T09:33:30.032Z,22.83
2018-06-15T09:35:58.115Z,23.48
2018-06-15T09:38:26.208Z,23.60
2018-06-15T09:40:54.294Z,22.95
2018-06-15T09:43:22.375Z,22.03
2018-06-15T09:45:50.596Z,21.71
2018-06-15T09:48:18.723Z,22.22
2018-06-15T09:50:46.917Z,22.62
2018-06-15T09:53:14.995Z,22.49
2018-06-15T09:55:43.083Z,22.23
2018-06-15T09:58:11.162Z,22.84
2018-06-15T10:03:31.831Z,22.12
2018-06-15T10:05:59.903Z,21.90
2018-06-15T10:08:28.035Z,22.33
2018-06-15T10:10:56.121Z,22.77
2018-06-15T10:13:24.238Z,23.32
2018-06-15T10:15:52.378Z,23.41
2018-06-15T10:18:20.539Z,23.37
2018-06-15T10:20:48.603Z,23.40
2018-06-15T10:23:16.845Z,23.20
2018-06-15T10:25:44.977Z,22.76
2018-06-15T10:28:13.144Z,22.85
2018-06-15T10:30:41.300Z,23.52
2018-06-15T10:33:09.769Z,23.81
2018-06-15T10:35:38.002Z,23.32
2018-06-15T10:38:06.180Z,23.42
2018-06-15T10:40:34.242Z,23.42
2018-06-15T10:43:02.331Z,23.85
2018-06-15T10:45:30.428Z,23.67
2018-06-15T10:47:58.552Z,22.99
2018-06-15T10:50:26.701Z,22.84
2018-06-15T10:52:55.177Z,22.50
2018-06-15T10:55:23.362Z,22.34
2018-06-15T10:57:51.520Z,22.75
2018-06-15T11:00:19.603Z,22.67
2018-06-15T11:02:47.719Z,22.76
2018-06-15T11:05:15.864Z,22.65
2018-06-15T11:07:43.940Z,22.81
2018-06-15T11:10:12.059Z,23.39
2018-06-15T11:12:40.174Z,23.71
2018-06-15T11:15:08.236Z,23.53
2018-06-15T11:17:36.322Z,23.15
2018-06-15T11:20:05.234Z,23.58
2018-06-15T11:22:33.336Z,23.13
2018-06-15T11:25:01.506Z,23.20
2018-06-15T11:27:29.598Z,23.14
2018-06-15T11:29:57.671Z,22.98
2018-06-15T11:32:25.754Z,22.69
2018-06-15T11:34:53.937Z,22.45
2018-06-15T11:37:22.134Z,22.48
2018-06-15T11:39:50.225Z,22.74
2018-06-15T11:42:18.299Z,23.17
2018-06-15T11:44:46.381Z,23.42
2018-06-15T11:47:14.471Z,23.82
2018-06-15T11:49:42.561Z,23.60
2018-06-15T11:52:10.703Z,23.57
2018-06-15T11:54:38.778Z,23.32
2018-06-15T11:57:06.904Z,23.53
2018-06-15T11:59:34.999Z,23.99
2018-06-15T12:02:03.088Z,23.42
2018-06-15T12:04:31.207Z,23.87
2018-06-15T12:06:59.287Z,24.17
2018-06-15T12:09:27.396Z,23.47
2018-06-15T12:11:55.484Z,23.93
2018-06-15T12:14:23.566Z,24.49
2018-06-15T12:16:51.631Z,24.81
2018-06-15T12:19:19.711Z,24.31
2018-06-15T12:21:47.802Z,24.33
2018-06-15T12:24:15.900Z,23.51
2018-06-15T12:26:44.004Z,24.15
2018-06-15T12:29:12.144Z,24.39
2018-06-15T12:31:40.231Z,23.89
2018-06-15T12:34:08.363Z,24.54
2018-06-15T12:36:36.423Z,24.93
2018-06-15T12:39:07.224Z,24.99
2018-06-15T12:41:35.303Z,25.17
2018-06-15T12:44:03.416Z,23.86
2018-06-15T12:46:31.495Z,23.55
2018-06-15T12:48:59.600Z,23.63
2018-06-15T12:51:27.700Z,24.13
2018-06-15T12:53:55.786Z,24.43
2018-06-15T12:56:23.860Z,25.14
2018-06-15T12:58:52.004Z,25.30
2018-06-15T13:01:20.095Z,25.38
2018-06-15T13:03:48.180Z,25.56
2018-06-15T13:06:16.255Z,25.54
2018-06-15T13:08:44.346Z,24.65
2018-06-15T13:11:12.452Z,25.04
2018-06-15T13:13:40.596Z,24.65
2018-06-15T13:16:08.711Z,24.48
2018-06-15T13:18:36.811Z,24.86
2018-06-15T13:21:04.907Z,25.37
2018-06-15T13:23:34.967Z,25.72
2018-06-15T13:26:03.069Z,24.88
2018-06-15T13:28:31.268Z,25.06
2018-06-15T13:30:59.365Z,24.63
2018-06-15T13:33:27.439Z,24.60
2018-06-15T13:35:56.358Z,24.76
2018-06-15T13:38:24.458Z,24.21
2018-06-15T13:40:52.531Z,24.81
2018-06-15T13:43:20.652Z,25.34
2018-06-15T13:45:48.746Z,25.74
2018-06-15T13:48:16.872Z,25.30
2018-06-15T13:50:45.057Z,25.22
2018-06-15T13:53:13.173Z,25.73
2018-06-15T13:55:41.296Z,26.08
2018-06-15T13:58:09.382Z,25.81
2018-06-15T14:00:37.478Z,25.38
2018-06-15T14:03:05.554Z,24.97
2018-06-15T14:05:33.654Z,25.29
2018-06-15T14:08:01.743Z,25.32
2018-06-15T14:10:29.833Z,25.09
2018-06-15T14:12:57.957Z,24.86
2018-06-15T14:15:26.080Z,24.69
2018-06-15T14:17:54.203Z,24.42
2018-06-15T14:20:22.328Z,24.33
2018-06-15T14:22:50.420Z,24.12
2018-06-15T14:25:18.507Z,24.11
2018-06-15T14:27:50.549Z,24.40
2018-06-15T14:30:18.663Z,23.97
2018-06-15T14:32:46.792Z,23.59
2018-06-15T14:35:14.867Z,23.88
2018-06-15T14:37:42.976Z,24.33
2018-06-15T14:40:11.131Z,24.01
2018-06-15T14:42:39.197Z,23.69
2018-06-15T14:45:07.428Z,24.08
2018-06-15T14:47:35.496Z,23.92
2018-06-15T14:50:03.625Z,24.33
2018-06-15T14:52:31.824Z,24.25
2018-06-15T14:54:59.906Z,23.94
2018-06-15T14:57:28.011Z,24.12
2018-06-15T14:59:56.189Z,24.17
2018-06-15T15:02:24.324Z,23.87
2018-06-15T15:04:52.691Z,24.17
2018-06-15T15:07:20.720Z,24.58
2018-06-15T15:09:48.864Z,24.67
2018-06-15T15:12:16.936Z,24.31
2018-06-15T15:14:45.169Z,24.11
2018-06-15T15:17:13.256Z,24.11
2018-06-15T15:19:41.363Z,23.99
2018-06-15T15:22:09.519Z,23.89
2018-06-15T15:24:37.629Z,23.87
2018-06-15T15:27:05.705Z,23.96
2018-06-15T15:29:33.776Z,23.63
2018-06-15T15:32:01.890Z,23.81
2018-06-15T15:34:29.997Z,24.21
2018-06-15T15:36:58.104Z,24.16
2018-06-15T15:39:26.193Z,24.36
2018-06-15T15:41:54.358Z,24.35
2018-06-15T15:44:22.453Z,24.47
2018-06-15T15:46:50.529Z,24.21
2018-06-15T15:49:18.682Z,24.12
2018-06-15T15:51:46.780Z,23.98
2018-06-15T15:54:14.887Z,24.33
2018-06-15T15:56:43.041Z,24.29
2018-06-15T15:59:11.178Z,24.00
2018-06-15T16:01:39.278Z,23.37
2018-06-15T16:04:07.366Z,23.70
2018-06-15T16:06:35.450Z,23.75
2018-06-15T16:09:04.527Z,23.85
2018-06-15T16:11:32.631Z,23.63
2018-06-15T16:14:00.701Z,23.75
2018-06-15T16:16:28.794Z,23.41
2018-06-15T16:18:56.990Z,23.17
2018-06-15T16:21:25.076Z,23.33
2018-06-15T16:23:53.160Z,23.33
2018-06-15T16:26:21.261Z,23.16
2018-06-15T16:28:49.351Z,23.08
2018-06-15T16:31:17.424Z,22.93
2018-06-15T16:33:45.506Z,22.92
2018-06-15T16:36:14.617Z,23.01
2018-06-15T16:38:43.644Z,23.23
2018-06-15T16:41:12.039Z,23.09
2018-06-15T16:43:40.375Z,23.01
2018-06-15T16:46:08.719Z,23.10
2018-06-15T16:48:37.658Z,23.21
2018-06-15T16:51:05.799Z,23.20
2018-06-15T16:53:34.385Z,23.14
2018-06-15T16:56:03.816Z,23.17
2018-06-15T16:58:32.270Z,23.10
2018-06-15T17:01:00.443Z,22.94
2018-06-15T17:03:38.078Z,22.92
2018-06-15T17:06:06.434Z,22.97
2018-06-15T17:08:34.673Z,23.05
2018-06-15T17:11:02.911Z,23.32
2018-06-15T17:13:31.259Z,23.52
2018-06-15T17:15:59.487Z,23.55
2018-06-15T17:18:28.067Z,23.52
2018-06-15T17:20:56.293Z,23.31
2018-06-15T17:23:24.461Z,23.43
2018-06-15T17:25:52.795Z,23.51
2018-06-15T17:28:21.161Z,23.48
2018-06-15T17:30:52.298Z,23.48
2018-06-15T17:33:20.469Z,23.21
2018-06-15T17:35:48.912Z,23.45
2018-06-15T17:38:17.240Z,23.63
2018-06-15T17:40:45.760Z,23.52
2018-06-15T17:43:14.191Z,23.57
2018-06-15T17:45:42.374Z,23.46
2018-06-15T17:48:10.621Z,23.56
2018-06-15T17:50:39.811Z,23.52
2018-06-15T17:53:07.952Z,23.49
2018-06-15T17:55:36.415Z,23.47
2018-06-15T17:58:04.702Z,23.63
2018-06-15T18:00:32.846Z,23.53
2018-06-15T18:03:01.101Z,23.74
2018-06-15T18:05:29.213Z,23.48
2018-06-15T18:07:58.559Z,23.43
2018-06-15T18:10:26.723Z,23.38
2018-06-15T18:12:54.849Z,23.47
2018-06-15T18:15:22.970Z,23.32
2018-06-15T18:17:51.153Z,23.13
2018-06-15T18:20:19.287Z,23.13
2018-06-15T18:22:47.407Z,23.39
2018-06-15T18:25:15.554Z,23.19
2018-06-15T18:27:43.681Z,22.91
2018-06-15T18:30:11.811Z,22.83
2018-06-15T18:32:50.537Z,22.96
2018-06-15T18:35:18.676Z,22.87
2018-06-15T18:37:46.903Z,22.68
2018-06-15T18:40:15.282Z,22.67
2018-06-15T18:42:44.551Z,22.67
2018-06-15T18:45:12.738Z,22.74
2018-06-15T18:47:40.863Z,22.82
2018-06-15T18:50:09.104Z,22.63
2018-06-15T18:52:38.740Z,22.65
2018-06-15T18:55:06.946Z,22.61
2018-06-15T18:57:42.878Z,22.62
2018-06-15T19:00:11.922Z,22.62
2018-06-15T19:02:40.146Z,22.59
2018-06-15T19:05:08.366Z,22.52
2018-06-15T19:07:37.174Z,22.36
2018-06-15T19:10:05.291Z,21.96
2018-06-15T19:12:33.580Z,22.02
2018-06-15T19:15:01.766Z,22.07
2018-06-15T19:17:29.941Z,22.05
2018-06-15T19:19:58.190Z,22.03
2018-06-15T19:22:26.388Z,21.96
2018-06-15T19:24:54.539Z,21.76
2018-06-15T19:27:22.763Z,21.56
2018-06-15T19:29:51.020Z,21.51
2018-06-15T19:32:19.153Z,21.50
2018-06-15T19:34:47.423Z,21.53
2018-06-15T19:37:15.517Z,21.58
2018-06-15T19:39:43.706Z,21.57
2018-06-15T19:42:11.907Z,21.56
2018-06-15T19:44:40.023Z,21.54
2018-06-15T19:47:08.139Z,21.50
2018-06-15T19:49:36.245Z,21.33
2018-06-15T19:52:04.671Z,21.06
2018-06-15T19:54:34.060Z,20.95
2018-06-15T19:57:02.213Z,20.84
2018-06-15T19:59:30.364Z,21.02
2018-06-15T20:01:59.087Z,21.13
2018-06-15T20:04:35.129Z,21.11
2018-06-15T20:07:03.293Z,21.08
2018-06-15T20:09:31.399Z,20.99
2018-06-15T20:11:59.752Z,20.98
2018-06-15T20:14:27.879Z,20.95
2018-06-15T20:16:56.052Z,20.87
2018-06-15T20:19:24.179Z,20.88
2018-06-15T20:21:52.336Z,20.91
2018-06-15T20:24:20.448Z,20.93
2018-06-15T20:26:48.748Z,20.82
2018-06-15T20:29:16.917Z,20.46
2018-06-15T20:31:45.037Z,20.20
2018-06-15T20:34:13.174Z,20.05
2018-06-15T20:36:41.292Z,19.97
2018-06-15T20:39:10.155Z,20.07
2018-06-15T20:41:38.618Z,20.17
2018-06-15T20:44:07.032Z,20.20
2018-06-15T20:46:35.520Z,19.92
2018-06-15T20:49:03.915Z,19.76
2018-06-15T20:51:32.130Z,19.73
2018-06-15T20:54:00.289Z,19.78
2018-06-15T20:56:28.680Z,19.85
2018-06-15T20:58:56.875Z,19.78
2018-06-15T21:01:25.148Z,19.52
2018-06-15T21:03:53.332Z,19.31
2018-06-15T21:06:21.497Z,19.26
2018-06-15T21:08:49.726Z,19.18
2018-06-15T21:11:17.867Z,19.22
2018-06-15T21:13:46.037Z,19.33
2018-06-15T21:16:14.260Z,19.37
2018-06-15T21:18:46.899Z,19.47
2018-06-15T21:21:15.076Z,19.38
2018-06-15T21:23:43.199Z,19.17
2018-06-15T21:26:11.346Z,19.04
2018-06-15T21:28:39.501Z,18.78
2018-06-15T21:31:07.695Z,18.61
2018-06-15T21:33:37.272Z,18.59
2018-06-15T21:36:05.446Z,18.56
2018-06-15T21:38:33.632Z,18.51
2018-06-15T21:41:01.770Z,18.38
2018-06-15T21:43:29.914Z,18.39
2018-06-15T21:45:58.293Z,18.35
2018-06-15T21:48:28.282Z,18.38
2018-06-15T21:50:56.467Z,18.49
2018-06-15T21:53:24.589Z,18.46
2018-06-15T21:55:52.725Z,18.47
2018-06-15T21:58:20.901Z,18.42
2018-06-15T22:00:48.993Z,18.11
2018-06-15T22:03:17.122Z,17.94
2018-06-15T22:05:45.247Z,17.77
2018-06-15T22:08:13.469Z,17.69
2018-06-15T22:10:41.725Z,17.72
2018-06-15T22:13:09.918Z,17.84
2018-06-15T22:15:38.075Z,17.94
2018-06-15T22:18:08.801Z,18.01
2018-06-15T22:20:37.079Z,18.06
2018-06-15T22:23:05.247Z,17.83
2018-06-15T22:25:33.488Z,17.46
2018-06-15T22:28:01.798Z,17.30
2018-06-15T22:30:29.910Z,17.22
2018-06-15T22:32:58.271Z,17.08
2018-06-15T22:35:26.398Z,16.98
2018-06-15T22:37:54.735Z,16.92
2018-06-15T22:40:23.255Z,16.99
2018-06-15T22:42:51.439Z,17.24
2018-06-15T22:45:20.121Z,17.36
2018-06-15T22:47:48.426Z,17.37
2018-06-15T22:50:16.487Z,17.17
2018-06-15T22:52:44.574Z,16.93
2018-06-15T22:55:12.735Z,16.93
2018-06-15T22:57:40.848Z,17.14
2018-06-15T23:00:08.951Z,16.90
2018-06-15T23:02:37.197Z,16.79
2018-06-15T23:05:05.344Z,16.71
2018-06-15T23:07:33.467Z,16.58
2018-06-15T23:10:01.653Z,16.61
2018-06-15T23:12:29.723Z,16.73
2018-06-15T23:16:14.315Z,16.77
2018-06-15T23:18:43.211Z,16.54
2018-06-15T23:21:11.477Z,16.60
2018-06-15T23:23:39.727Z,16.90
2018-06-15T23:26:08.440Z,17.17
2018-06-15T23:28:37.444Z,16.94
2018-06-15T23:31:06.711Z,16.72
2018-06-15T23:33:42.150Z,16.65
2018-06-15T23:36:14.912Z,16.67
2018-06-15T23:38:44.572Z,16.51
2018-06-15T23:41:14.728Z,16.35
2018-06-15T23:43:44.654Z,16.21
2018-06-15T23:46:13.600Z,16.14
2018-06-15T23:48:41.985Z,16.07
2018-06-15T23:51:10.302Z,15.95
2018-06-15T23:53:38.690Z,15.94
2018-06-15T23:56:07.130Z,15.92
2018-06-15T23:58:35.531Z,15.90
